Parowan, Utah
Current Conditions -  °F | °C
As of 10:53 PM on Tuesday 21 Oct 2014 (Local Time) from KCDC Reporting Station
Clear Clear  
Wind Chill: 47°   Ceiling: Unl
Heat Index: 49°   Visibility: 10mi
Dew Point: 33°   Wind: 5mph
Humidity: 54%   Direction: 40°NE
Pressure: 30.05"   Gusts: NA
Location:  37.84°N, 112.83°W
Report Text: KCDC 220453Z AUTO 04004KT 10SM CLR 09/01 A3005 RMK AO2 SLP128 T00940006 TSNO
Loading
Personal Weather Stations






























Interactive Weather Map New forecast layout! Learn more

10-Day Weather Forecast

Advertisements
Track Severe Weather on mobile